Time;durP1;ratioP1;P1;durP2;ratioP2;P2;SDS_P1;SDS_P2;PMS_P1;PMS_P2;Temp;Humidity;BMP_temperature;BMP_pressure;BME280_temperature;BME280_humidity;BME280_pressure;Samples;Min_cycle;Max_cycle;Signal;HPM_P1;HPM_P2
2023/02/19 00:01:43;;;;;;;17.55;8.85;;;8.60;99.90;;;;;;5097932;28;25071;-72
2023/02/19 00:04:16;;;;;;;20.80;9.48;;;8.60;99.90;;;;;;5097669;28;25100;-72
2023/02/19 00:06:44;;;;;;;24.48;8.23;;;8.60;99.90;;;;;;5097717;28;25107;-72
2023/02/19 00:09:13;;;;;;;14.55;8.07;;;8.60;99.90;;;;;;5079592;28;25066;-72
2023/02/19 00:11:41;;;;;;;16.73;7.38;;;8.60;99.90;;;;;;5078875;28;25096;-72
2023/02/19 00:14:14;;;;;;;21.60;9.15;;;8.60;99.90;;;;;;5097485;28;25061;-72
2023/02/19 00:16:41;;;;;;;19.33;8.40;;;8.60;99.90;;;;;;5097912;28;25072;-72
2023/02/19 00:19:15;;;;;;;20.27;9.23;;;8.60;99.90;;;;;;5062873;28;25052;-72
2023/02/19 00:21:42;;;;;;;17.92;8.68;;;8.60;99.90;;;;;;5079434;28;25064;-73
2023/02/19 00:24:11;;;;;;;19.70;9.52;;;8.50;99.90;;;;;;5097521;28;25412;-72
2023/02/19 00:26:39;;;;;;;17.63;9.05;;;8.50;99.90;;;;;;5097712;28;25124;-72
2023/02/19 00:29:07;;;;;;;19.25;9.50;;;8.50;99.90;;;;;;5097240;28;25062;-73
2023/02/19 00:31:35;;;;;;;18.35;9.32;;;8.50;99.90;;;;;;5097509;28;25070;-72
2023/02/19 00:34:05;;;;;;;17.98;8.80;;;8.50;99.90;;;;;;5097717;28;25085;-72
2023/02/19 00:36:34;;;;;;;20.15;9.55;;;8.50;99.90;;;;;;5075734;28;25069;-72
2023/02/19 00:39:02;;;;;;;18.95;9.88;;;8.50;99.90;;;;;;5076761;28;25070;-72
2023/02/19 00:41:30;;;;;;;20.63;9.50;;;8.50;99.90;;;;;;5075681;28;25067;-72
2023/02/19 00:44:05;;;;;;;18.77;10.15;;;8.50;99.90;;;;;;5075573;28;25058;-72
2023/02/19 00:46:39;;;;;;;18.15;8.25;;;8.50;99.90;;;;;;5075834;28;25052;-72
2023/02/19 00:49:07;;;;;;;19.48;8.30;;;8.50;99.90;;;;;;5076699;28;25104;-72
2023/02/19 00:51:37;;;;;;;19.38;8.55;;;8.50;99.90;;;;;;5076647;28;25067;-73
2023/02/19 00:54:05;;;;;;;15.23;8.30;;;8.50;99.90;;;;;;5077163;28;25102;-72
2023/02/19 00:56:33;;;;;;;14.57;6.10;;;8.50;99.90;;;;;;5077357;28;25065;-72
2023/02/19 00:59:00;;;;;;;13.98;6.88;;;8.50;99.90;;;;;;5077119;28;25057;-72
2023/02/19 01:01:27;;;;;;;15.23;6.68;;;8.50;99.90;;;;;;5077134;28;25066;-72
2023/02/19 01:03:54;;;;;;;13.00;6.45;;;8.60;99.90;;;;;;5077015;28;25139;-72
2023/02/19 01:06:22;;;;;;;12.98;5.80;;;8.60;99.90;;;;;;5076942;28;25123;-72
2023/02/19 01:08:49;;;;;;;8.38;5.00;;;8.50;99.90;;;;;;5076427;28;25076;-72
2023/02/19 01:11:19;;;;;;;9.32;4.30;;;8.50;99.90;;;;;;5076448;28;25068;-72
2023/02/19 01:13:47;;;;;;;7.32;4.00;;;8.50;99.90;;;;;;5076014;28;25049;-72
2023/02/19 01:16:20;;;;;;;10.70;5.53;;;8.60;99.90;;;;;;5077112;28;25061;-72
2023/02/19 01:18:47;;;;;;;7.22;4.05;;;8.60;99.90;;;;;;5076341;28;25114;-72
2023/02/19 01:21:18;;;;;;;6.15;3.40;;;8.60;99.90;;;;;;5076880;28;25057;-72
2023/02/19 01:23:46;;;;;;;9.23;4.15;;;8.60;99.90;;;;;;5077594;28;25060;-72
2023/02/19 01:26:19;;;;;;;7.30;3.20;;;8.60;99.90;;;;;;5075342;28;25072;-72
2023/02/19 01:28:47;;;;;;;12.13;4.63;;;8.60;99.90;;;;;;5076772;28;25114;-72
2023/02/19 01:31:18;;;;;;;6.70;3.38;;;8.60;99.90;;;;;;5075140;28;25073;-72
2023/02/19 01:33:47;;;;;;;7.13;3.83;;;8.60;99.90;;;;;;5076483;28;25105;-72
2023/02/19 01:36:15;;;;;;;7.80;3.42;;;8.60;99.90;;;;;;5081418;28;25063;-72
2023/02/19 01:38:42;;;;;;;9.70;3.50;;;8.60;99.90;;;;;;5096299;28;25081;-72
2023/02/19 01:41:16;;;;;;;7.95;2.83;;;8.60;99.90;;;;;;5096321;28;25059;-72
2023/02/19 01:44:25;;;;;;;6.55;2.63;;;8.60;99.90;;;;;;5096229;28;25135;-72
2023/02/19 01:46:56;;;;;;;4.78;2.55;;;8.60;99.90;;;;;;5077844;28;25076;-72
2023/02/19 01:49:29;;;;;;;5.45;2.30;;;8.60;99.90;;;;;;5096719;28;25076;-72
2023/02/19 01:51:59;;;;;;;5.72;1.73;;;8.60;99.90;;;;;;5096102;28;25058;-72
2023/02/19 01:54:32;;;;;;;5.18;2.10;;;8.60;99.90;;;;;;5096451;28;25101;-72
2023/02/19 01:57:05;;;;;;;4.45;2.47;;;8.60;99.90;;;;;;5096563;28;25093;-72
2023/02/19 01:59:33;;;;;;;5.18;2.33;;;8.70;99.90;;;;;;5096039;28;25083;-72
2023/02/19 02:02:00;;;;;;;5.18;2.35;;;8.70;99.90;;;;;;5096717;28;25157;-72
2023/02/19 02:04:32;;;;;;;4.43;2.05;;;8.70;99.90;;;;;;5096532;28;25112;-72
2023/02/19 02:07:02;;;;;;;5.60;2.63;;;8.70;99.90;;;;;;5096758;28;25053;-72
2023/02/19 02:12:16;;;;;;;6.55;2.80;;;8.80;99.90;;;;;;5096030;28;25061;-72
2023/02/19 02:14:46;;;;;;;7.45;2.35;;;8.80;99.90;;;;;;5096706;28;25078;-72
2023/02/19 02:17:14;;;;;;;4.75;2.63;;;8.80;99.90;;;;;;5095969;28;25105;-72
2023/02/19 02:20:06;;;;;;;6.63;3.33;;;8.80;99.90;;;;;;5096508;28;25080;-72
2023/02/19 02:22:44;;;;;;;6.20;3.30;;;8.80;99.90;;;;;;5095845;28;25146;-72
2023/02/19 02:25:23;;;;;;;6.43;3.50;;;8.90;99.90;;;;;;5096066;28;25095;-72
2023/02/19 02:27:51;;;;;;;6.53;4.18;;;8.90;99.90;;;;;;5096429;28;25074;-72
2023/02/19 02:30:26;;;;;;;6.85;3.67;;;8.90;99.90;;;;;;5096137;28;25074;-72
2023/02/19 02:33:14;;;;;;;8.02;4.30;;;8.90;99.90;;;;;;5096343;28;25098;-72
2023/02/19 02:35:53;;;;;;;7.53;4.28;;;8.90;99.90;;;;;;5099312;28;25068;-73
2023/02/19 02:38:24;;;;;;;8.63;4.32;;;8.90;99.90;;;;;;5081379;28;25057;-72
2023/02/19 02:40:53;;;;;;;9.13;5.70;;;9.00;99.90;;;;;;5099385;28;25069;-72
2023/02/19 02:43:20;;;;;;;10.25;5.13;;;8.90;99.90;;;;;;5099760;28;25108;-72
2023/02/19 02:45:48;;;;;;;13.55;4.72;;;8.90;99.90;;;;;;5081389;28;25061;-72
2023/02/19 02:48:43;;;;;;;10.63;5.47;;;9.00;99.90;;;;;;5099843;28;25087;-72
2023/02/19 02:51:24;;;;;;;9.30;5.03;;;8.90;99.90;;;;;;5099460;28;25074;-72
2023/02/19 02:56:49;;;;;;;7.55;4.22;;;9.00;99.90;;;;;;5099296;28;25089;-72
2023/02/19 02:59:21;;;;;;;10.55;5.60;;;9.00;99.90;;;;;;5099040;28;25087;-73
2023/02/19 03:02:13;;;;;;;9.27;4.68;;;8.90;99.90;;;;;;5098959;28;25153;-72
2023/02/19 03:08:03;;;;;;;9.77;4.75;;;8.90;99.90;;;;;;5099323;28;25074;-72
2023/02/19 03:10:42;;;;;;;10.65;5.35;;;9.00;99.90;;;;;;5099369;28;25080;-73
2023/02/19 03:19:19;;;;;;;;;;;9.00;99.90;;;;;;5099081;28;25059;-72
2023/02/19 03:22:01;;;;;;;12.60;5.75;;;9.00;99.90;;;;;;5080599;28;25111;-72
2023/02/19 03:27:21;;;;;;;12.63;6.25;;;9.00;99.90;;;;;;5098454;28;25063;-72
2023/02/19 03:29:51;;;;;;;15.27;6.80;;;9.00;99.90;;;;;;5080510;28;25089;-72
2023/02/19 03:32:28;;;;;;;9.90;6.63;;;9.00;99.90;;;;;;5098365;28;25064;-72
2023/02/19 03:35:10;;;;;;;11.65;6.18;;;9.00;99.90;;;;;;5099065;28;25095;-72
2023/02/19 03:38:01;;;;;;;10.95;5.80;;;9.00;99.90;;;;;;5097901;28;25069;-72
2023/02/19 03:40:30;;;;;;;10.27;5.95;;;9.00;99.90;;;;;;5098193;28;25077;-72
2023/02/19 03:43:08;;;;;;;16.23;6.00;;;9.00;99.90;;;;;;5098097;28;25050;-72
2023/02/19 03:45:45;;;;;;;12.20;6.65;;;8.90;99.90;;;;;;5097028;28;25114;-72
2023/02/19 03:48:45;;;;;;;13.93;6.78;;;9.00;99.90;;;;;;5098362;28;25117;-72
2023/02/19 03:51:41;;;;;;;11.00;5.75;;;8.90;99.90;;;;;;5098184;28;25117;-72
2023/02/19 03:54:25;;;;;;;11.00;6.32;;;9.00;99.90;;;;;;5098525;28;25110;-72
2023/02/19 03:56:55;;;;;;;14.80;6.63;;;9.00;99.90;;;;;;5079896;28;25070;-72
2023/02/19 03:59:43;;;;;;;9.00;5.03;;;8.90;99.90;;;;;;5079848;28;25073;-72
2023/02/19 04:02:18;;;;;;;12.63;6.60;;;8.90;99.90;;;;;;5098330;28;25075;-72
2023/02/19 04:05:03;;;;;;;13.80;6.40;;;9.00;99.90;;;;;;5079676;28;25106;-72
2023/02/19 04:07:35;;;;;;;17.42;8.30;;;9.00;99.90;;;;;;5079718;28;25079;-72
2023/02/19 04:10:04;;;;;;;14.27;8.00;;;9.00;99.90;;;;;;5079626;28;25091;-72
2023/02/19 04:12:32;;;;;;;16.38;7.45;;;9.00;99.90;;;;;;5097602;28;25090;-72
2023/02/19 04:15:11;;;;;;;19.85;8.75;;;9.00;99.90;;;;;;5097968;28;25084;-72
2023/02/19 04:17:49;;;;;;;14.27;8.23;;;9.00;99.90;;;;;;5079515;28;25083;-72
2023/02/19 04:20:18;;;;;;;22.08;8.43;;;9.00;99.90;;;;;;5097452;28;25056;-72
2023/02/19 04:22:46;;;;;;;19.23;9.13;;;9.00;99.90;;;;;;5097343;28;25058;-72
2023/02/19 04:25:13;;;;;;;13.10;8.07;;;9.00;99.90;;;;;;5097496;28;25062;-72
2023/02/19 04:27:44;;;;;;;17.58;8.43;;;9.00;99.90;;;;;;5097857;28;25053;-73
2023/02/19 04:30:13;;;;;;;18.77;9.52;;;9.00;99.90;;;;;;5097575;28;25117;-72
2023/02/19 04:32:40;;;;;;;18.10;9.27;;;9.00;99.90;;;;;;5079231;28;25103;-72
2023/02/19 04:35:08;;;;;;;18.70;9.50;;;8.90;99.90;;;;;;5079293;28;25074;-72
2023/02/19 04:37:35;;;;;;;16.48;7.53;;;8.90;99.90;;;;;;5096860;28;25136;-72
2023/02/19 04:40:03;;;;;;;18.63;9.48;;;8.90;99.90;;;;;;5098638;28;25049;-72
2023/02/19 04:42:30;;;;;;;12.20;5.93;;;8.90;99.90;;;;;;5097083;28;25157;-72
2023/02/19 04:44:57;;;;;;;16.30;7.88;;;8.90;99.90;;;;;;5097090;28;25061;-72
2023/02/19 04:47:25;;;;;;;9.98;5.15;;;8.90;99.90;;;;;;5097020;28;25106;-72
2023/02/19 04:49:52;;;;;;;17.08;7.60;;;8.90;99.90;;;;;;5097573;28;25101;-72
2023/02/19 04:52:20;;;;;;;17.85;8.00;;;8.90;99.90;;;;;;5097110;28;25064;-72
2023/02/19 04:54:47;;;;;;;18.27;8.60;;;8.90;99.90;;;;;;5096948;28;25050;-72
2023/02/19 04:57:15;;;;;;;16.88;8.90;;;8.90;99.90;;;;;;5078523;28;25115;-72
2023/02/19 04:59:42;;;;;;;12.73;7.32;;;8.90;99.90;;;;;;5078861;28;25108;-72
2023/02/19 05:02:09;;;;;;;16.08;8.07;;;8.90;99.90;;;;;;5097292;28;25061;-72
2023/02/19 05:04:37;;;;;;;12.73;7.05;;;8.90;99.90;;;;;;5097031;28;25106;-72
2023/02/19 05:07:04;;;;;;;16.33;7.97;;;8.90;99.90;;;;;;5097207;28;25077;-72
2023/02/19 05:09:31;;;;;;;17.08;7.32;;;8.90;99.90;;;;;;5096734;28;25117;-72
2023/02/19 05:11:58;;;;;;;17.90;7.38;;;8.90;99.90;;;;;;5078698;28;25055;-72
2023/02/19 05:14:26;;;;;;;18.52;8.05;;;8.90;99.90;;;;;;5096505;28;25064;-73
2023/02/19 05:16:53;;;;;;;13.75;6.68;;;8.80;99.90;;;;;;5078610;28;25125;-72
2023/02/19 05:19:20;;;;;;;16.50;8.55;;;8.80;99.90;;;;;;5096520;28;25058;-72
2023/02/19 05:21:47;;;;;;;12.40;6.97;;;8.90;99.90;;;;;;5078578;28;25098;-72
2023/02/19 05:24:15;;;;;;;16.27;8.35;;;8.90;99.90;;;;;;5097194;28;25074;-72
2023/02/19 05:26:42;;;;;;;12.95;5.95;;;8.80;99.90;;;;;;5078480;28;25086;-72
2023/02/19 05:29:10;;;;;;;15.63;7.03;;;8.90;99.90;;;;;;5096364;28;25104;-72
2023/02/19 05:31:38;;;;;;;14.60;6.28;;;8.90;99.90;;;;;;5096421;28;25068;-72
2023/02/19 05:34:05;;;;;;;9.30;4.88;;;8.80;99.90;;;;;;5096378;28;25127;-72
2023/02/19 05:36:32;;;;;;;11.23;4.28;;;8.80;99.90;;;;;;5096252;28;25138;-71
2023/02/19 05:39:01;;;;;;;11.68;4.03;;;8.90;99.90;;;;;;5096597;28;24998;-72
2023/02/19 05:41:29;;;;;;;6.75;3.92;;;8.80;99.90;;;;;;5096605;28;25116;-72
2023/02/19 05:43:57;;;;;;;7.65;4.57;;;8.90;99.90;;;;;;5078243;28;25061;-72
2023/02/19 05:46:31;;;;;;;11.40;4.57;;;8.80;99.90;;;;;;5096436;28;25127;-72
2023/02/19 05:48:59;;;;;;;11.90;4.93;;;8.80;99.90;;;;;;5078339;28;25114;-72
2023/02/19 05:51:27;;;;;;;10.77;4.78;;;8.80;99.90;;;;;;5096798;28;25065;-72
2023/02/19 05:53:56;;;;;;;8.15;4.30;;;8.80;99.90;;;;;;5078224;28;25091;-72
2023/02/19 05:56:28;;;;;;;7.75;3.58;;;8.80;99.90;;;;;;5096364;28;25074;-72
2023/02/19 05:58:56;;;;;;;10.75;4.75;;;8.90;99.90;;;;;;5078263;28;25122;-72
2023/02/19 06:01:26;;;;;;;9.82;3.97;;;8.90;99.90;;;;;;5096175;28;25069;-72
2023/02/19 06:03:54;;;;;;;11.52;4.78;;;8.90;99.90;;;;;;5096587;28;25063;-72
2023/02/19 06:06:22;;;;;;;6.07;2.75;;;8.90;99.90;;;;;;5078336;28;25070;-72
2023/02/19 06:08:50;;;;;;;7.28;2.35;;;8.80;99.90;;;;;;5097314;28;25072;-72
2023/02/19 06:11:18;;;;;;;2.35;1.20;;;8.60;99.90;;;;;;5100210;28;25061;-72
2023/02/19 06:13:45;;;;;;;2.53;1.17;;;8.40;99.90;;;;;;5099930;28;25075;-72
2023/02/19 06:16:13;;;;;;;1.77;0.98;;;8.10;99.90;;;;;;5081977;28;25150;-72
2023/02/19 06:18:40;;;;;;;1.25;0.70;;;7.90;99.90;;;;;;5100381;28;25064;-72
2023/02/19 06:21:10;;;;;;;3.67;0.60;;;7.60;99.90;;;;;;5100070;28;25072;-72
2023/02/19 06:23:38;;;;;;;0.95;0.50;;;7.40;99.90;;;;;;5081584;28;25056;-72
2023/02/19 06:26:14;;;;;;;0.73;0.40;;;7.20;99.90;;;;;;5099862;28;25144;-72
2023/02/19 06:28:42;;;;;;;0.45;0.20;;;7.00;99.90;;;;;;5099628;28;25088;-72
2023/02/19 06:31:10;;;;;;;2.08;0.75;;;6.80;99.90;;;;;;5100088;28;25089;-72
2023/02/19 06:33:41;;;;;;;0.88;0.40;;;6.70;99.90;;;;;;5099539;28;25067;-72
2023/02/19 06:36:15;;;;;;;0.73;0.60;;;6.60;99.90;;;;;;5099084;28;25082;-72
2023/02/19 06:38:43;;;;;;;0.70;0.40;;;6.50;99.90;;;;;;5099412;28;25078;-72
2023/02/19 06:41:11;;;;;;;0.47;0.20;;;6.40;99.90;;;;;;5099440;28;25119;-72
2023/02/19 06:43:40;;;;;;;1.00;0.40;;;6.30;99.90;;;;;;5099108;28;25071;-72
2023/02/19 06:46:10;;;;;;;0.32;0.30;;;6.20;99.90;;;;;;5099627;28;25095;-72
2023/02/19 06:48:39;;;;;;;0.57;0.28;;;6.20;99.90;;;;;;5099785;28;25089;-72
2023/02/19 06:51:06;;;;;;;2.40;0.22;;;6.10;99.90;;;;;;5081416;28;25098;-71
2023/02/19 06:53:34;;;;;;;0.43;0.20;;;6.10;99.90;;;;;;5099114;28;25069;-73
2023/02/19 06:56:07;;;;;;;1.60;0.20;;;6.00;99.90;;;;;;5099106;28;25082;-71
2023/02/19 06:58:34;;;;;;;0.40;0.17;;;6.00;99.90;;;;;;5099650;28;25098;-76
2023/02/19 07:01:01;;;;;;;0.65;0.30;;;6.00;99.90;;;;;;5099443;28;25092;-76
2023/02/19 07:03:29;;;;;;;0.50;0.20;;;5.90;99.90;;;;;;5080881;28;25073;-76
2023/02/19 07:05:59;;;;;;;0.45;0.25;;;5.90;99.90;;;;;;5098986;28;25075;-78
2023/02/19 07:08:27;;;;;;;0.93;0.30;;;5.90;99.90;;;;;;5098862;28;25126;-79
2023/02/19 07:10:58;;;;;;;1.27;0.40;;;5.90;99.90;;;;;;5099319;28;25070;-78
2023/02/19 07:13:26;;;;;;;0.82;0.38;;;5.90;99.90;;;;;;5099055;28;25093;-78
2023/02/19 07:16:08;;;;;;;1.48;0.52;;;5.90;99.90;;;;;;5080875;28;25067;-83
2023/02/19 07:18:36;;;;;;;0.75;0.40;;;5.90;99.90;;;;;;5098708;28;25128;-79
2023/02/19 07:21:05;;;;;;;0.50;0.30;;;5.80;99.90;;;;;;5080628;28;25056;-80
2023/02/19 07:23:33;;;;;;;3.92;0.95;;;5.80;99.90;;;;;;5097966;28;25131;-86
2023/02/19 07:26:00;;;;;;;0.95;0.40;;;5.80;99.90;;;;;;5080909;28;25062;-86
2023/02/19 07:28:27;;;;;;;1.42;0.43;;;5.90;99.90;;;;;;5098929;28;25093;-86
2023/02/19 07:31:01;;;;;;;0.73;0.40;;;5.90;99.90;;;;;;5098973;28;25078;-83
2023/02/19 07:33:28;;;;;;;1.45;0.57;;;5.90;99.90;;;;;;5098430;28;25101;-84
2023/02/19 07:35:56;;;;;;;0.95;0.40;;;5.90;99.90;;;;;;5098472;28;25060;-73
2023/02/19 07:38:24;;;;;;;0.95;0.30;;;5.90;99.90;;;;;;5098262;28;25058;-74
2023/02/19 07:40:57;;;;;;;0.63;0.30;;;5.90;99.90;;;;;;5080691;28;25104;-73
2023/02/19 07:43:25;;;;;;;1.40;0.30;;;6.00;99.90;;;;;;5098072;28;25114;-73
2023/02/19 07:45:53;;;;;;;0.38;0.20;;;6.00;99.90;;;;;;5098437;28;25065;-73
2023/02/19 07:48:20;;;;;;;0.88;0.10;;;6.00;99.90;;;;;;5077144;28;25048;-73
2023/02/19 07:50:59;;;;;;;0.65;0.35;;;6.00;99.90;;;;;;5098451;28;25115;-73
2023/02/19 07:53:27;;;;;;;1.60;0.20;;;6.00;99.90;;;;;;5097969;28;25117;-73
2023/02/19 07:55:59;;;;;;;0.45;0.30;;;6.00;99.90;;;;;;5079925;28;25098;-73
2023/02/19 07:58:27;;;;;;;0.22;0.20;;;6.10;99.90;;;;;;5098373;28;25110;-75
2023/02/19 08:00:54;;;;;;;1.40;0.30;;;6.10;99.90;;;;;;5079979;28;25102;-75
2023/02/19 08:03:22;;;;;;;1.75;0.57;;;6.10;99.90;;;;;;5098032;28;25123;-75
2023/02/19 08:05:50;;;;;;;1.80;0.90;;;6.10;99.90;;;;;;5098005;28;25051;-76
2023/02/19 08:08:18;;;;;;;1.50;0.90;;;6.10;99.90;;;;;;5098015;28;25121;-76
2023/02/19 08:13:32;;;;;;;0.68;0.40;;;6.10;99.90;;;;;;5097654;28;25149;-75
2023/02/19 08:16:02;;;;;;;4.53;2.05;;;6.00;99.90;;;;;;5097140;28;25056;-75
2023/02/19 08:18:32;;;;;;;3.50;1.35;;;5.90;99.90;;;;;;5089473;28;25072;-75
2023/02/19 08:20:59;;;;;;;16.23;5.90;;;5.90;99.90;;;;;;5079004;28;25065;-76
2023/02/19 08:23:27;;;;;;;3.08;1.40;;;5.90;99.90;;;;;;5097660;28;25057;-76
2023/02/19 08:26:01;;;;;;;2.22;0.75;;;5.90;99.90;;;;;;5079514;28;25102;-75
2023/02/19 08:28:29;;;;;;;3.60;1.17;;;5.90;99.90;;;;;;5097912;28;25137;-75
2023/02/19 08:31:05;;;;;;;1.45;0.77;;;5.90;99.90;;;;;;5078861;28;25108;-75
2023/02/19 08:33:32;;;;;;;1.33;0.75;;;5.90;99.90;;;;;;5079324;28;25064;-76
2023/02/19 08:36:10;;;;;;;13.07;4.47;;;5.80;99.90;;;;;;5096278;28;25101;-76
2023/02/19 08:38:37;;;;;;;2.20;1.33;;;5.80;99.90;;;;;;5079229;28;25050;-74
2023/02/19 08:41:13;;;;;;;8.63;3.92;;;5.90;99.90;;;;;;5079086;28;25056;-74
2023/02/19 08:43:41;;;;;;;3.08;1.70;;;5.90;99.90;;;;;;5097237;28;25116;-75
2023/02/19 08:46:09;;;;;;;2.38;1.58;;;5.80;99.90;;;;;;5079061;28;25061;-75
2023/02/19 08:48:37;;;;;;;1.80;1.02;;;5.70;99.90;;;;;;5078998;28;25084;-80
2023/02/19 08:51:07;;;;;;;2.42;1.30;;;5.70;99.90;;;;;;5079159;28;25080;-75
2023/02/19 08:53:37;;;;;;;2.95;1.70;;;5.70;99.90;;;;;;5078820;28;25088;-75
2023/02/19 08:56:10;;;;;;;1.70;1.00;;;5.70;99.90;;;;;;5096835;28;25104;-75
2023/02/19 08:58:38;;;;;;;2.70;1.33;;;5.60;99.90;;;;;;5097372;28;25134;-75
2023/02/19 09:01:15;;;;;;;3.08;1.80;;;5.60;99.90;;;;;;5097064;28;25057;-75
2023/02/19 09:03:42;;;;;;;6.07;3.30;;;5.60;99.90;;;;;;5097196;28;25066;-76
2023/02/19 09:06:19;;;;;;;2.63;1.73;;;5.60;99.90;;;;;;5078899;28;25115;-75
2023/02/19 09:08:46;;;;;;;2.67;1.35;;;5.70;99.90;;;;;;5097255;28;25049;-82
2023/02/19 09:11:14;;;;;;;1.73;1.10;;;5.70;99.90;;;;;;5096975;28;25113;-74
2023/02/19 09:13:42;;;;;;;3.55;1.45;;;5.70;99.90;;;;;;5096907;28;25057;-75
2023/02/19 09:16:10;;;;;;;2.10;1.30;;;5.80;99.90;;;;;;5096637;28;25061;-75
2023/02/19 09:18:37;;;;;;;2.08;1.00;;;5.90;99.90;;;;;;5096540;28;25074;-74
2023/02/19 09:21:05;;;;;;;2.10;1.23;;;6.00;99.90;;;;;;5077962;28;25104;-74
2023/02/19 09:23:36;;;;;;;3.22;1.70;;;6.20;99.90;;;;;;5096885;28;25058;-74
2023/02/19 09:26:07;;;;;;;3.13;1.73;;;6.30;99.90;;;;;;5096640;28;25129;-74
2023/02/19 09:28:35;;;;;;;3.25;1.67;;;6.40;99.90;;;;;;5096387;28;25111;-78
2023/02/19 09:31:06;;;;;;;2.67;1.60;;;6.50;99.90;;;;;;5096489;28;25128;-75
2023/02/19 09:33:34;;;;;;;2.95;1.65;;;6.60;99.90;;;;;;5078511;28;25128;-76
2023/02/19 09:36:01;;;;;;;2.42;1.33;;;6.70;99.90;;;;;;5096531;28;25074;-76
2023/02/19 09:38:30;;;;;;;4.38;1.17;;;6.80;99.90;;;;;;5097059;28;25086;-75
2023/02/19 09:40:58;;;;;;;1.88;1.02;;;6.80;99.90;;;;;;5096506;28;25110;-76
2023/02/19 09:43:28;;;;;;;2.13;1.33;;;6.80;99.90;;;;;;5097991;28;25075;-76
2023/02/19 09:46:32;;;;;;;2.45;1.60;;;6.80;99.90;;;;;;5100110;28;25049;-75
2023/02/19 09:49:13;;;;;;;2.15;1.23;;;6.80;99.90;;;;;;5100591;28;25071;-75
2023/02/19 09:51:47;;;;;;;2.88;1.17;;;6.70;99.90;;;;;;5082513;28;25095;-75
2023/02/19 09:54:29;;;;;;;2.08;1.48;;;6.70;99.90;;;;;;5100351;28;25083;-76
2023/02/19 09:57:01;;;;;;;2.08;1.10;;;6.70;99.90;;;;;;5100263;28;25119;-75
2023/02/19 09:59:44;;;;;;;2.22;1.30;;;6.70;99.90;;;;;;5100437;28;25137;-75
2023/02/19 10:02:18;;;;;;;2.28;1.23;;;6.70;99.90;;;;;;5100758;28;25137;-75
2023/02/19 10:04:47;;;;;;;2.40;1.40;;;6.60;99.90;;;;;;5082031;28;25136;-76
2023/02/19 10:07:30;;;;;;;11.38;5.40;;;6.50;99.90;;;;;;5082027;28;25118;-74
2023/02/19 10:10:24;;;;;;;5.20;2.42;;;6.50;99.90;;;;;;5100027;28;25056;-74
2023/02/19 10:12:59;;;;;;;2.38;1.40;;;6.50;99.90;;;;;;5099926;28;25110;-74
2023/02/19 10:15:45;;;;;;;2.90;1.73;;;6.50;99.90;;;;;;5100538;28;25087;-75
2023/02/19 10:18:16;;;;;;;3.33;1.40;;;6.60;99.90;;;;;;5100092;28;25060;-75
2023/02/19 10:20:43;;;;;;;2.88;1.67;;;6.60;99.90;;;;;;5100115;28;25063;-74
2023/02/19 10:23:14;;;;;;;4.70;2.20;;;6.70;99.90;;;;;;5099627;28;25150;-74
2023/02/19 10:25:56;;;;;;;3.42;0.90;;;6.80;99.90;;;;;;5100201;28;25087;-75
2023/02/19 10:28:32;;;;;;;1.50;0.75;;;6.90;99.90;;;;;;5099793;28;25106;-75
2023/02/19 10:31:02;;;;;;;2.22;0.65;;;7.10;99.90;;;;;;5099789;28;25062;-74
2023/02/19 10:33:29;;;;;;;1.92;0.73;;;7.20;99.90;;;;;;5100208;28;25057;-75
2023/02/19 10:36:06;;;;;;;1.40;0.70;;;7.30;99.90;;;;;;5081484;28;25052;-75
2023/02/19 10:38:45;;;;;;;3.28;1.00;;;7.30;99.90;;;;;;5081497;28;25088;-75
2023/02/19 10:41:16;;;;;;;3.22;1.50;;;7.30;99.90;;;;;;5081430;28;25070;-76
2023/02/19 10:44:10;;;;;;;1.27;0.70;;;7.40;99.90;;;;;;5099238;28;25085;-74
2023/02/19 10:46:45;;;;;;;2.25;1.10;;;7.40;99.90;;;;;;5100618;28;25069;-75
2023/02/19 10:49:27;;;;;;;4.20;2.28;;;7.50;99.90;;;;;;5081751;28;25121;-76
2023/02/19 10:51:56;;;;;;;5.25;2.70;;;7.50;99.90;;;;;;5099232;28;24849;-75
2023/02/19 10:54:30;;;;;;;2.85;1.15;;;7.50;99.90;;;;;;5081471;28;25057;-75
2023/02/19 10:57:16;;;;;;;3.22;1.45;;;7.50;99.90;;;;;;5099106;28;25064;-75
2023/02/19 10:59:58;;;;;;;2.97;1.45;;;7.50;99.90;;;;;;5099318;28;25051;-75
2023/02/19 11:02:28;;;;;;;2.33;1.00;;;7.50;99.90;;;;;;5081373;28;25066;-75
2023/02/19 11:05:14;;;;;;;3.08;0.77;;;7.50;99.90;;;;;;5099361;28;25091;-75
2023/02/19 11:07:56;;;;;;;5.40;2.33;;;7.60;99.90;;;;;;5099226;28;25137;-75
2023/02/19 11:10:33;;;;;;;2.05;1.00;;;7.60;99.90;;;;;;5098798;28;25062;-75
2023/02/19 11:13:05;;;;;;;1.92;0.93;;;7.60;99.90;;;;;;5098799;28;25061;-75
2023/02/19 11:15:34;;;;;;;1.95;0.75;;;7.70;99.90;;;;;;5099248;28;25068;-75
2023/02/19 11:18:01;;;;;;;1.80;0.82;;;7.70;99.90;;;;;;5080632;28;25116;-75
2023/02/19 11:20:30;;;;;;;1.63;0.70;;;7.70;99.90;;;;;;5098988;28;25065;-75
2023/02/19 11:23:04;;;;;;;2.30;0.93;;;7.80;99.90;;;;;;5100705;28;25077;-75
2023/02/19 11:25:33;;;;;;;1.88;0.82;;;7.90;99.90;;;;;;5098621;28;25053;-75
2023/02/19 11:28:23;;;;;;;1.25;0.73;;;8.00;99.90;;;;;;5080559;28;25071;-75
2023/02/19 11:30:50;;;;;;;1.55;0.80;;;8.00;99.90;;;;;;5080626;28;25097;-76
2023/02/19 11:33:25;;;;;;;2.50;1.15;;;8.10;99.90;;;;;;5080225;28;25111;-75
2023/02/19 11:36:16;;;;;;;1.65;0.80;;;8.10;99.90;;;;;;5098721;28;25063;-75
2023/02/19 11:38:44;;;;;;;1.15;0.55;;;8.20;99.90;;;;;;5098340;28;25058;-76
2023/02/19 11:41:26;;;;;;;1.45;0.68;;;8.20;99.90;;;;;;5080471;28;25050;-76
2023/02/19 11:43:57;;;;;;;2.47;0.57;;;8.30;99.90;;;;;;5080216;28;25100;-75
2023/02/19 11:46:40;;;;;;;2.90;1.58;;;8.40;99.90;;;;;;5080210;28;25072;-74
2023/02/19 11:49:40;;;;;;;1.75;0.60;;;8.40;99.90;;;;;;5098329;28;25111;-74
2023/02/19 11:52:31;;;;;;;1.90;0.70;;;8.40;99.90;;;;;;5098316;28;25089;-75
2023/02/19 11:55:21;;;;;;;3.53;0.90;;;8.50;99.90;;;;;;5098036;28;25057;-75
2023/02/19 11:58:13;;;;;;;1.20;0.85;;;8.50;99.90;;;;;;5098194;28;25076;-78
2023/02/19 12:01:13;;;;;;;3.60;0.65;;;8.50;99.90;;;;;;5098325;28;25061;-76
2023/02/19 12:04:34;;;;;;;1.70;0.73;;;8.60;99.90;;;;;;5066932;28;25112;-76
2023/02/19 12:07:31;;;;;;;3.05;0.77;;;8.70;99.90;;;;;;4979169;28;25068;-76
2023/02/19 12:10:21;;;;;;;3.10;1.08;;;8.70;99.90;;;;;;4996802;28;25072;-76
2023/02/19 12:12:54;;;;;;;1.85;0.70;;;8.80;99.90;;;;;;5088097;28;25117;-76
2023/02/19 12:15:58;;;;;;;1.73;0.75;;;8.90;99.90;;;;;;5097971;28;25073;-76
2023/02/19 12:18:59;;;;;;;1.73;0.70;;;9.00;99.90;;;;;;5079583;28;25068;-76
2023/02/19 12:21:55;;;;;;;2.60;1.08;;;8.90;99.90;;;;;;5097502;28;25105;-76
2023/02/19 12:24:40;;;;;;;1.20;0.40;;;8.90;99.90;;;;;;5097436;28;25071;-76
2023/02/19 12:27:46;;;;;;;1.83;0.70;;;8.80;99.90;;;;;;5079358;28;25058;-76
2023/02/19 12:30:33;;;;;;;2.53;0.80;;;8.80;99.90;;;;;;5075041;28;25116;-76
2023/02/19 12:33:28;;;;;;;1.17;0.63;;;8.90;99.90;;;;;;5097264;28;25069;-76
2023/02/19 12:36:23;;;;;;;1.95;0.60;;;8.90;99.90;;;;;;5096958;28;25130;-75
2023/02/19 12:39:03;;;;;;;2.20;0.80;;;9.00;99.90;;;;;;5097159;28;25105;-76
2023/02/19 12:41:39;;;;;;;1.65;0.60;;;9.10;99.90;;;;;;5079088;28;25088;-76
2023/02/19 12:44:22;;;;;;;2.67;0.70;;;9.20;99.90;;;;;;5097274;28;25120;-76
2023/02/19 12:46:53;;;;;;;2.03;1.00;;;9.20;99.90;;;;;;5097089;28;25070;-76
2023/02/19 12:49:31;;;;;;;3.58;1.35;;;9.20;99.90;;;;;;5097476;28;25123;-76
2023/02/19 12:52:16;;;;;;;1.10;0.70;;;9.10;99.90;;;;;;5078972;28;25077;-76
2023/02/19 12:54:53;;;;;;;0.60;0.40;;;9.10;99.90;;;;;;5097254;28;25045;-76
2023/02/19 12:57:34;;;;;;;4.32;0.80;;;9.00;99.90;;;;;;5079863;28;25064;-76
2023/02/19 13:00:29;;;;;;;1.58;0.68;;;9.10;99.90;;;;;;5080034;28;25071;-76
2023/02/19 13:03:24;;;;;;;2.20;0.52;;;9.10;99.90;;;;;;5097302;28;25144;-76
2023/02/19 13:06:20;;;;;;;3.83;1.00;;;9.20;99.90;;;;;;5097925;28;25080;-76
2023/02/19 13:08:58;;;;;;;1.58;1.00;;;9.20;99.90;;;;;;5047233;28;25152;-76
2023/02/19 13:11:36;;;;;;;2.45;0.73;;;9.20;99.90;;;;;;5096694;28;25129;-76
2023/02/19 13:14:48;;;;;;;3.03;0.90;;;9.10;99.90;;;;;;5078797;28;25126;-76
2023/02/19 13:17:38;;;;;;;2.08;0.90;;;9.00;99.90;;;;;;5069238;28;25075;-76
2023/02/19 13:20:33;;;;;;;6.53;2.15;;;8.90;99.90;;;;;;5096780;28;25057;-76
2023/02/19 13:26:29;;;;;;;3.88;1.25;;;8.80;99.90;;;;;;5096556;28;25059;-76
2023/02/19 13:29:28;;;;;;;1.67;0.93;;;8.90;99.90;;;;;;5046091;28;25116;-76
2023/02/19 13:32:02;;;;;;;4.95;2.08;;;9.00;99.90;;;;;;5078475;28;25129;-76
2023/02/19 13:35:04;;;;;;;2.70;1.08;;;9.10;99.90;;;;;;5097003;28;25071;-76
2023/02/19 13:37:35;;;;;;;1.65;0.93;;;9.20;99.90;;;;;;5096058;28;25124;-76
2023/02/19 13:40:27;;;;;;;2.60;1.17;;;9.20;99.90;;;;;;5096553;28;25140;-76
2023/02/19 13:42:57;;;;;;;3.45;1.02;;;9.30;99.90;;;;;;5078382;28;25127;-76
2023/02/19 13:45:44;;;;;;;3.35;1.38;;;9.30;99.90;;;;;;5096344;28;25080;-76
2023/02/19 13:48:43;;;;;;;2.00;0.80;;;9.30;99.90;;;;;;5077368;28;25068;-76
2023/02/19 13:51:23;;;;;;;2.10;0.85;;;9.40;99.90;;;;;;5092632;28;25068;-76
2023/02/19 13:54:20;;;;;;;1.67;0.82;;;9.40;99.90;;;;;;5078489;28;25051;-76
2023/02/19 13:57:25;;;;;;;1.25;0.80;;;9.40;99.90;;;;;;5087412;28;25165;-76